sensor_id;sensor_type;location;lat;lon;timestamp;P1;durP1;ratioP1;P2;durP2;ratioP2
55641;SDS011;41509;53.108;6.100;2023-03-01T00:01:29;20.42;;;9.75;;
55641;SDS011;41509;53.108;6.100;2023-03-01T00:03:57;19.02;;;10.05;;
55641;SDS011;41509;53.108;6.100;2023-03-01T00:06:24;23.15;;;10.13;;
55641;SDS011;41509;53.108;6.100;2023-03-01T00:08:51;22.20;;;9.43;;
55641;SDS011;41509;53.108;6.100;2023-03-01T00:11:21;18.27;;;8.88;;
55641;SDS011;41509;53.108;6.100;2023-03-01T00:13:49;19.10;;;9.40;;
55641;SDS011;41509;53.108;6.100;2023-03-01T00:16:24;22.55;;;10.48;;
55641;SDS011;41509;53.108;6.100;2023-03-01T00:18:53;21.13;;;9.77;;
55641;SDS011;41509;53.108;6.100;2023-03-01T00:21:20;20.08;;;10.15;;
55641;SDS011;41509;53.108;6.100;2023-03-01T00:23:47;20.50;;;9.85;;
55641;SDS011;41509;53.108;6.100;2023-03-01T00:26:13;18.73;;;8.85;;
55641;SDS011;41509;53.108;6.100;2023-03-01T00:28:40;18.55;;;9.30;;
55641;SDS011;41509;53.108;6.100;2023-03-01T00:31:07;24.67;;;10.90;;
55641;SDS011;41509;53.108;6.100;2023-03-01T00:33:38;22.42;;;10.32;;
55641;SDS011;41509;53.108;6.100;2023-03-01T00:36:04;21.15;;;9.57;;
55641;SDS011;41509;53.108;6.100;2023-03-01T00:38:33;22.13;;;10.68;;
55641;SDS011;41509;53.108;6.100;2023-03-01T00:41:04;20.98;;;9.73;;
55641;SDS011;41509;53.108;6.100;2023-03-01T00:43:31;21.17;;;10.52;;
55641;SDS011;41509;53.108;6.100;2023-03-01T00:46:02;20.90;;;10.35;;
55641;SDS011;41509;53.108;6.100;2023-03-01T00:48:32;22.80;;;9.80;;
55641;SDS011;41509;53.108;6.100;2023-03-01T00:51:03;20.33;;;11.40;;
55641;SDS011;41509;53.108;6.100;2023-03-01T00:53:33;21.02;;;9.80;;
55641;SDS011;41509;53.108;6.100;2023-03-01T00:55:59;22.52;;;10.60;;
55641;SDS011;41509;53.108;6.100;2023-03-01T00:58:25;21.67;;;10.70;;
55641;SDS011;41509;53.108;6.100;2023-03-01T01:00:51;19.77;;;10.70;;
55641;SDS011;41509;53.108;6.100;2023-03-01T01:03:20;17.85;;;9.20;;
55641;SDS011;41509;53.108;6.100;2023-03-01T01:05:46;19.10;;;9.90;;
55641;SDS011;41509;53.108;6.100;2023-03-01T01:08:12;18.37;;;9.10;;
55641;SDS011;41509;53.108;6.100;2023-03-01T01:10:37;19.37;;;9.40;;
55641;SDS011;41509;53.108;6.100;2023-03-01T01:13:03;20.57;;;10.03;;
55641;SDS011;41509;53.108;6.100;2023-03-01T01:15:29;18.03;;;9.50;;
55641;SDS011;41509;53.108;6.100;2023-03-01T01:17:58;24.00;;;9.55;;
55641;SDS011;41509;53.108;6.100;2023-03-01T01:20:23;22.03;;;9.93;;
55641;SDS011;41509;53.108;6.100;2023-03-01T01:22:49;19.47;;;8.67;;
55641;SDS011;41509;53.108;6.100;2023-03-01T01:27:41;19.38;;;8.77;;
55641;SDS011;41509;53.108;6.100;2023-03-01T01:30:07;15.43;;;8.77;;
55641;SDS011;41509;53.108;6.100;2023-03-01T01:32:33;18.55;;;8.70;;
55641;SDS011;41509;53.108;6.100;2023-03-01T01:34:59;16.73;;;8.93;;
55641;SDS011;41509;53.108;6.100;2023-03-01T01:37:24;15.63;;;8.40;;
55641;SDS011;41509;53.108;6.100;2023-03-01T01:39:56;17.70;;;9.52;;
55641;SDS011;41509;53.108;6.100;2023-03-01T01:42:25;22.48;;;8.77;;
55641;SDS011;41509;53.108;6.100;2023-03-01T01:47:55;15.48;;;8.50;;
55641;SDS011;41509;53.108;6.100;2023-03-01T01:50:25;18.20;;;9.15;;
55641;SDS011;41509;53.108;6.100;2023-03-01T01:52:51;16.52;;;8.63;;
55641;SDS011;41509;53.108;6.100;2023-03-01T01:55:20;19.27;;;9.18;;
55641;SDS011;41509;53.108;6.100;2023-03-01T01:57:51;19.45;;;9.20;;
55641;SDS011;41509;53.108;6.100;2023-03-01T02:00:25;19.67;;;8.93;;
55641;SDS011;41509;53.108;6.100;2023-03-01T02:02:57;17.85;;;9.07;;
55641;SDS011;41509;53.108;6.100;2023-03-01T02:05:33;19.70;;;9.75;;
55641;SDS011;41509;53.108;6.100;2023-03-01T02:08:02;25.88;;;9.48;;
55641;SDS011;41509;53.108;6.100;2023-03-01T02:10:28;16.40;;;8.67;;
55641;SDS011;41509;53.108;6.100;2023-03-01T02:13:01;22.33;;;10.02;;
55641;SDS011;41509;53.108;6.100;2023-03-01T02:15:31;18.73;;;8.90;;
55641;SDS011;41509;53.108;6.100;2023-03-01T02:18:01;20.13;;;10.07;;
55641;SDS011;41509;53.108;6.100;2023-03-01T02:20:44;23.27;;;9.70;;
55641;SDS011;41509;53.108;6.100;2023-03-01T02:30:47;56.20;;;12.07;;
55641;SDS011;41509;53.108;6.100;2023-03-01T02:33:34;33.22;;;9.90;;
55641;SDS011;41509;53.108;6.100;2023-03-01T02:36:04;43.15;;;9.90;;
55641;SDS011;41509;53.108;6.100;2023-03-01T02:38:34;30.40;;;10.80;;
55641;SDS011;41509;53.108;6.100;2023-03-01T02:40:59;46.00;;;10.60;;
55641;SDS011;41509;53.108;6.100;2023-03-01T02:43:27;48.83;;;10.07;;
55641;SDS011;41509;53.108;6.100;2023-03-01T02:45:57;28.80;;;10.57;;
55641;SDS011;41509;53.108;6.100;2023-03-01T02:48:26;24.42;;;10.18;;
55641;SDS011;41509;53.108;6.100;2023-03-01T02:51:04;22.25;;;9.38;;
55641;SDS011;41509;53.108;6.100;2023-03-01T02:56:41;29.58;;;10.70;;
55641;SDS011;41509;53.108;6.100;2023-03-01T02:59:09;31.85;;;10.85;;
55641;SDS011;41509;53.108;6.100;2023-03-01T03:01:35;23.40;;;10.80;;
55641;SDS011;41509;53.108;6.100;2023-03-01T03:04:09;24.92;;;11.48;;
55641;SDS011;41509;53.108;6.100;2023-03-01T03:06:42;21.50;;;10.95;;
55641;SDS011;41509;53.108;6.100;2023-03-01T03:09:09;22.85;;;9.70;;
55641;SDS011;41509;53.108;6.100;2023-03-01T03:11:35;24.05;;;10.35;;
55641;SDS011;41509;53.108;6.100;2023-03-01T03:14:01;22.63;;;9.25;;
55641;SDS011;41509;53.108;6.100;2023-03-01T03:16:28;21.73;;;9.80;;
55641;SDS011;41509;53.108;6.100;2023-03-01T03:18:55;23.52;;;10.15;;
55641;SDS011;41509;53.108;6.100;2023-03-01T03:21:30;17.38;;;8.90;;
55641;SDS011;41509;53.108;6.100;2023-03-01T03:23:56;14.25;;;7.60;;
55641;SDS011;41509;53.108;6.100;2023-03-01T03:26:22;18.25;;;8.38;;
55641;SDS011;41509;53.108;6.100;2023-03-01T03:28:48;20.37;;;8.87;;
55641;SDS011;41509;53.108;6.100;2023-03-01T03:31:14;14.43;;;7.43;;
55641;SDS011;41509;53.108;6.100;2023-03-01T03:33:39;16.27;;;7.37;;
55641;SDS011;41509;53.108;6.100;2023-03-01T03:36:05;17.33;;;8.03;;
55641;SDS011;41509;53.108;6.100;2023-03-01T03:38:31;19.73;;;8.47;;
55641;SDS011;41509;53.108;6.100;2023-03-01T03:41:01;16.13;;;7.60;;
55641;SDS011;41509;53.108;6.100;2023-03-01T03:43:29;14.93;;;7.18;;
55641;SDS011;41509;53.108;6.100;2023-03-01T03:45:57;12.98;;;6.97;;
55641;SDS011;41509;53.108;6.100;2023-03-01T03:48:23;15.73;;;6.90;;
55641;SDS011;41509;53.108;6.100;2023-03-01T03:53:16;17.10;;;6.53;;
55641;SDS011;41509;53.108;6.100;2023-03-01T03:55:42;15.43;;;6.30;;
55641;SDS011;41509;53.108;6.100;2023-03-01T04:00:39;13.48;;;5.78;;
55641;SDS011;41509;53.108;6.100;2023-03-01T04:03:06;17.63;;;6.75;;
55641;SDS011;41509;53.108;6.100;2023-03-01T04:05:32;18.48;;;6.25;;
55641;SDS011;41509;53.108;6.100;2023-03-01T04:07:58;27.77;;;6.53;;
55641;SDS011;41509;53.108;6.100;2023-03-01T04:10:28;27.10;;;7.50;;
55641;SDS011;41509;53.108;6.100;2023-03-01T04:12:55;40.28;;;6.57;;
55641;SDS011;41509;53.108;6.100;2023-03-01T04:15:22;32.72;;;7.00;;
55641;SDS011;41509;53.108;6.100;2023-03-01T04:17:49;29.98;;;6.75;;
55641;SDS011;41509;53.108;6.100;2023-03-01T04:20:21;32.35;;;6.50;;
55641;SDS011;41509;53.108;6.100;2023-03-01T04:23:03;21.15;;;6.20;;
55641;SDS011;41509;53.108;6.100;2023-03-01T04:25:57;28.05;;;6.82;;
55641;SDS011;41509;53.108;6.100;2023-03-01T04:28:25;22.13;;;7.15;;
55641;SDS011;41509;53.108;6.100;2023-03-01T04:30:54;27.63;;;7.40;;
55641;SDS011;41509;53.108;6.100;2023-03-01T04:33:20;25.05;;;7.55;;
55641;SDS011;41509;53.108;6.100;2023-03-01T04:35:48;25.92;;;6.28;;
55641;SDS011;41509;53.108;6.100;2023-03-01T04:38:14;19.13;;;7.22;;
55641;SDS011;41509;53.108;6.100;2023-03-01T04:40:41;13.73;;;6.43;;
55641;SDS011;41509;53.108;6.100;2023-03-01T04:43:08;21.50;;;6.38;;
55641;SDS011;41509;53.108;6.100;2023-03-01T04:45:34;17.67;;;6.40;;
55641;SDS011;41509;53.108;6.100;2023-03-01T04:48:00;22.73;;;7.67;;
55641;SDS011;41509;53.108;6.100;2023-03-01T04:50:25;19.57;;;5.83;;
55641;SDS011;41509;53.108;6.100;2023-03-01T04:52:51;21.90;;;6.73;;
55641;SDS011;41509;53.108;6.100;2023-03-01T04:55:17;22.27;;;5.82;;
55641;SDS011;41509;53.108;6.100;2023-03-01T04:57:43;33.30;;;6.23;;
55641;SDS011;41509;53.108;6.100;2023-03-01T05:00:12;15.23;;;5.10;;
55641;SDS011;41509;53.108;6.100;2023-03-01T05:02:55;19.40;;;5.63;;
55641;SDS011;41509;53.108;6.100;2023-03-01T05:05:23;15.00;;;5.30;;
55641;SDS011;41509;53.108;6.100;2023-03-01T05:07:52;9.65;;;4.68;;
55641;SDS011;41509;53.108;6.100;2023-03-01T05:10:22;12.18;;;4.82;;
55641;SDS011;41509;53.108;6.100;2023-03-01T05:15:14;18.85;;;4.80;;
55641;SDS011;41509;53.108;6.100;2023-03-01T05:17:39;10.83;;;4.47;;
55641;SDS011;41509;53.108;6.100;2023-03-01T05:20:05;13.07;;;5.00;;
55641;SDS011;41509;53.108;6.100;2023-03-01T05:22:35;10.93;;;5.38;;
55641;SDS011;41509;53.108;6.100;2023-03-01T05:25:01;9.20;;;4.47;;
55641;SDS011;41509;53.108;6.100;2023-03-01T05:29:54;7.20;;;4.15;;
55641;SDS011;41509;53.108;6.100;2023-03-01T05:32:20;8.68;;;4.18;;
55641;SDS011;41509;53.108;6.100;2023-03-01T05:34:46;10.13;;;4.90;;
55641;SDS011;41509;53.108;6.100;2023-03-01T05:37:12;11.13;;;4.13;;
55641;SDS011;41509;53.108;6.100;2023-03-01T05:39:38;8.52;;;4.57;;
55641;SDS011;41509;53.108;6.100;2023-03-01T05:42:04;7.97;;;4.03;;
55641;SDS011;41509;53.108;6.100;2023-03-01T05:44:30;7.63;;;4.57;;
55641;SDS011;41509;53.108;6.100;2023-03-01T05:46:56;8.07;;;4.27;;
55641;SDS011;41509;53.108;6.100;2023-03-01T05:49:21;9.43;;;4.83;;
55641;SDS011;41509;53.108;6.100;2023-03-01T05:51:49;8.18;;;4.75;;
55641;SDS011;41509;53.108;6.100;2023-03-01T05:54:16;9.88;;;4.55;;
55641;SDS011;41509;53.108;6.100;2023-03-01T05:56:41;8.60;;;4.27;;
55641;SDS011;41509;53.108;6.100;2023-03-01T05:59:07;10.15;;;4.07;;
55641;SDS011;41509;53.108;6.100;2023-03-01T06:01:33;18.03;;;3.77;;
55641;SDS011;41509;53.108;6.100;2023-03-01T06:06:25;8.75;;;4.65;;
55641;SDS011;41509;53.108;6.100;2023-03-01T06:08:52;8.50;;;5.07;;
55641;SDS011;41509;53.108;6.100;2023-03-01T06:13:44;9.18;;;4.55;;
55641;SDS011;41509;53.108;6.100;2023-03-01T06:16:09;8.00;;;4.68;;
55641;SDS011;41509;53.108;6.100;2023-03-01T06:18:36;8.33;;;4.80;;
55641;SDS011;41509;53.108;6.100;2023-03-01T06:23:28;9.45;;;4.68;;
55641;SDS011;41509;53.108;6.100;2023-03-01T06:25:54;9.20;;;5.23;;
55641;SDS011;41509;53.108;6.100;2023-03-01T06:28:19;9.37;;;5.10;;
55641;SDS011;41509;53.108;6.100;2023-03-01T06:30:45;9.02;;;5.05;;
55641;SDS011;41509;53.108;6.100;2023-03-01T06:33:11;9.37;;;4.83;;
55641;SDS011;41509;53.108;6.100;2023-03-01T06:35:37;8.07;;;3.87;;
55641;SDS011;41509;53.108;6.100;2023-03-01T06:38:05;8.87;;;4.47;;
55641;SDS011;41509;53.108;6.100;2023-03-01T06:40:31;12.00;;;6.22;;
55641;SDS011;41509;53.108;6.100;2023-03-01T06:42:57;12.88;;;6.90;;
55641;SDS011;41509;53.108;6.100;2023-03-01T06:45:23;8.30;;;4.72;;
55641;SDS011;41509;53.108;6.100;2023-03-01T06:47:49;8.88;;;4.75;;
55641;SDS011;41509;53.108;6.100;2023-03-01T06:50:15;9.23;;;5.13;;
55641;SDS011;41509;53.108;6.100;2023-03-01T06:52:42;9.98;;;4.72;;
55641;SDS011;41509;53.108;6.100;2023-03-01T06:55:09;9.13;;;5.32;;
55641;SDS011;41509;53.108;6.100;2023-03-01T06:57:35;8.40;;;4.88;;
55641;SDS011;41509;53.108;6.100;2023-03-01T07:00:01;8.73;;;4.77;;
55641;SDS011;41509;53.108;6.100;2023-03-01T07:02:30;9.85;;;4.78;;
55641;SDS011;41509;53.108;6.100;2023-03-01T07:04:56;9.17;;;4.93;;
55641;SDS011;41509;53.108;6.100;2023-03-01T07:07:22;8.63;;;4.57;;
55641;SDS011;41509;53.108;6.100;2023-03-01T07:09:48;8.47;;;4.37;;
55641;SDS011;41509;53.108;6.100;2023-03-01T07:14:40;10.00;;;4.63;;
55641;SDS011;41509;53.108;6.100;2023-03-01T07:17:05;10.37;;;5.23;;
55641;SDS011;41509;53.108;6.100;2023-03-01T07:19:31;8.53;;;5.47;;
55641;SDS011;41509;53.108;6.100;2023-03-01T07:21:57;10.37;;;5.73;;
55641;SDS011;41509;53.108;6.100;2023-03-01T07:24:23;11.47;;;5.37;;
55641;SDS011;41509;53.108;6.100;2023-03-01T07:26:49;11.67;;;5.50;;
55641;SDS011;41509;53.108;6.100;2023-03-01T07:29:15;11.27;;;5.80;;
55641;SDS011;41509;53.108;6.100;2023-03-01T07:34:07;10.48;;;5.05;;
55641;SDS011;41509;53.108;6.100;2023-03-01T07:36:33;10.27;;;5.57;;
55641;SDS011;41509;53.108;6.100;2023-03-01T07:38:58;11.70;;;6.30;;
55641;SDS011;41509;53.108;6.100;2023-03-01T07:41:27;12.48;;;6.05;;
55641;SDS011;41509;53.108;6.100;2023-03-01T07:43:53;15.70;;;6.40;;
55641;SDS011;41509;53.108;6.100;2023-03-01T07:46:18;14.47;;;6.73;;
55641;SDS011;41509;53.108;6.100;2023-03-01T07:48:44;13.67;;;7.50;;
55641;SDS011;41509;53.108;6.100;2023-03-01T07:51:10;13.87;;;7.13;;
55641;SDS011;41509;53.108;6.100;2023-03-01T07:53:36;16.87;;;8.23;;
55641;SDS011;41509;53.108;6.100;2023-03-01T07:56:02;15.63;;;7.00;;
55641;SDS011;41509;53.108;6.100;2023-03-01T07:58:31;15.70;;;7.38;;
55641;SDS011;41509;53.108;6.100;2023-03-01T08:01:00;16.42;;;8.25;;
55641;SDS011;41509;53.108;6.100;2023-03-01T08:03:30;16.20;;;8.05;;
55641;SDS011;41509;53.108;6.100;2023-03-01T08:05:58;17.77;;;7.95;;
55641;SDS011;41509;53.108;6.100;2023-03-01T08:08:24;15.82;;;8.43;;
55641;SDS011;41509;53.108;6.100;2023-03-01T08:10:50;19.50;;;9.27;;
55641;SDS011;41509;53.108;6.100;2023-03-01T08:13:16;16.93;;;9.30;;
55641;SDS011;41509;53.108;6.100;2023-03-01T08:15:47;19.67;;;8.82;;
55641;SDS011;41509;53.108;6.100;2023-03-01T08:18:16;23.48;;;10.68;;
55641;SDS011;41509;53.108;6.100;2023-03-01T08:20:42;27.27;;;10.15;;
55641;SDS011;41509;53.108;6.100;2023-03-01T08:23:08;23.80;;;10.63;;
55641;SDS011;41509;53.108;6.100;2023-03-01T08:25:34;24.27;;;11.20;;
55641;SDS011;41509;53.108;6.100;2023-03-01T08:27:59;22.67;;;11.20;;
55641;SDS011;41509;53.108;6.100;2023-03-01T08:30:25;22.13;;;10.80;;
55641;SDS011;41509;53.108;6.100;2023-03-01T08:32:51;26.23;;;11.17;;
55641;SDS011;41509;53.108;6.100;2023-03-01T08:35:16;22.77;;;10.90;;
55641;SDS011;41509;53.108;6.100;2023-03-01T08:37:43;28.35;;;12.45;;
55641;SDS011;41509;53.108;6.100;2023-03-01T08:40:08;22.97;;;11.17;;
55641;SDS011;41509;53.108;6.100;2023-03-01T08:42:35;29.70;;;12.50;;
55641;SDS011;41509;53.108;6.100;2023-03-01T08:45:02;24.92;;;12.13;;
55641;SDS011;41509;53.108;6.100;2023-03-01T08:47:28;27.58;;;12.93;;
55641;SDS011;41509;53.108;6.100;2023-03-01T08:49:54;28.83;;;12.93;;
55641;SDS011;41509;53.108;6.100;2023-03-01T08:52:20;24.97;;;11.90;;
55641;SDS011;41509;53.108;6.100;2023-03-01T08:54:49;27.17;;;11.93;;
55641;SDS011;41509;53.108;6.100;2023-03-01T08:57:15;27.83;;;13.10;;
55641;SDS011;41509;53.108;6.100;2023-03-01T08:59:40;29.93;;;13.97;;
55641;SDS011;41509;53.108;6.100;2023-03-01T09:02:10;23.60;;;12.00;;
55641;SDS011;41509;53.108;6.100;2023-03-01T09:04:38;29.65;;;13.68;;
55641;SDS011;41509;53.108;6.100;2023-03-01T09:07:03;26.43;;;13.23;;
55641;SDS011;41509;53.108;6.100;2023-03-01T09:09:29;25.87;;;12.10;;
55641;SDS011;41509;53.108;6.100;2023-03-01T09:11:55;29.13;;;12.63;;
55641;SDS011;41509;53.108;6.100;2023-03-01T09:14:20;24.97;;;12.90;;
55641;SDS011;41509;53.108;6.100;2023-03-01T09:16:46;31.70;;;13.67;;
55641;SDS011;41509;53.108;6.100;2023-03-01T09:19:12;29.63;;;14.00;;
55641;SDS011;41509;53.108;6.100;2023-03-01T09:21:38;25.98;;;12.93;;
55641;SDS011;41509;53.108;6.100;2023-03-01T09:24:04;24.93;;;12.27;;
55641;SDS011;41509;53.108;6.100;2023-03-01T09:26:30;28.50;;;13.07;;
55641;SDS011;41509;53.108;6.100;2023-03-01T09:28:56;28.03;;;13.30;;
55641;SDS011;41509;53.108;6.100;2023-03-01T09:31:22;25.60;;;13.52;;
55641;SDS011;41509;53.108;6.100;2023-03-01T09:33:50;26.02;;;12.52;;
55641;SDS011;41509;53.108;6.100;2023-03-01T09:36:18;24.45;;;12.27;;
55641;SDS011;41509;53.108;6.100;2023-03-01T09:38:46;22.33;;;11.23;;
55641;SDS011;41509;53.108;6.100;2023-03-01T09:44:15;23.42;;;11.45;;
55641;SDS011;41509;53.108;6.100;2023-03-01T09:46:48;25.27;;;11.15;;
55641;SDS011;41509;53.108;6.100;2023-03-01T09:49:17;19.40;;;9.32;;
55641;SDS011;41509;53.108;6.100;2023-03-01T09:51:57;21.45;;;9.23;;
55641;SDS011;41509;53.108;6.100;2023-03-01T09:54:30;16.35;;;8.27;;
55641;SDS011;41509;53.108;6.100;2023-03-01T09:59:31;15.32;;;8.68;;
55641;SDS011;41509;53.108;6.100;2023-03-01T10:05:05;12.68;;;7.15;;
55641;SDS011;41509;53.108;6.100;2023-03-01T10:10:58;12.95;;;6.90;;
55641;SDS011;41509;53.108;6.100;2023-03-01T10:16:10;16.60;;;8.70;;
55641;SDS011;41509;53.108;6.100;2023-03-01T10:18:39;15.40;;;7.30;;
55641;SDS011;41509;53.108;6.100;2023-03-01T10:23:37;13.95;;;7.05;;
55641;SDS011;41509;53.108;6.100;2023-03-01T10:26:17;12.37;;;6.70;;
55641;SDS011;41509;53.108;6.100;2023-03-01T10:29:01;14.52;;;7.00;;
55641;SDS011;41509;53.108;6.100;2023-03-01T10:31:49;12.80;;;6.43;;
55641;SDS011;41509;53.108;6.100;2023-03-01T10:34:19;12.93;;;7.35;;
55641;SDS011;41509;53.108;6.100;2023-03-01T10:36:48;14.13;;;6.57;;
55641;SDS011;41509;53.108;6.100;2023-03-01T10:39:21;16.50;;;6.95;;
55641;SDS011;41509;53.108;6.100;2023-03-01T10:41:53;13.68;;;7.22;;
55641;SDS011;41509;53.108;6.100;2023-03-01T10:44:35;12.82;;;7.15;;
55641;SDS011;41509;53.108;6.100;2023-03-01T10:47:16;11.63;;;7.00;;
55641;SDS011;41509;53.108;6.100;2023-03-01T10:52:20;14.07;;;7.93;;
55641;SDS011;41509;53.108;6.100;2023-03-01T10:54:56;15.60;;;8.00;;
55641;SDS011;41509;53.108;6.100;2023-03-01T10:57:38;14.43;;;8.00;;
55641;SDS011;41509;53.108;6.100;2023-03-01T11:00:16;17.98;;;7.40;;
55641;SDS011;41509;53.108;6.100;2023-03-01T11:05:37;15.57;;;7.20;;
55641;SDS011;41509;53.108;6.100;2023-03-01T11:08:30;13.23;;;7.38;;
55641;SDS011;41509;53.108;6.100;2023-03-01T11:11:07;12.30;;;7.05;;
55641;SDS011;41509;53.108;6.100;2023-03-01T11:16:43;14.15;;;8.10;;
55641;SDS011;41509;53.108;6.100;2023-03-01T11:21:41;14.03;;;6.87;;
55641;SDS011;41509;53.108;6.100;2023-03-01T11:24:16;10.98;;;6.70;;
55641;SDS011;41509;53.108;6.100;2023-03-01T11:26:45;13.98;;;7.93;;
55641;SDS011;41509;53.108;6.100;2023-03-01T11:29:18;15.43;;;7.38;;
55641;SDS011;41509;53.108;6.100;2023-03-01T11:32:08;11.15;;;6.95;;
55641;SDS011;41509;53.108;6.100;2023-03-01T11:37:23;14.23;;;7.82;;
55641;SDS011;41509;53.108;6.100;2023-03-01T11:43:09;12.52;;;7.03;;
55641;SDS011;41509;53.108;6.100;2023-03-01T11:48:32;11.60;;;7.15;;
55641;SDS011;41509;53.108;6.100;2023-03-01T12:24:36;13.80;;;7.72;;
55641;SDS011;41509;53.108;6.100;2023-03-01T12:35:34;16.08;;;7.60;;
55641;SDS011;41509;53.108;6.100;2023-03-01T12:41:08;16.52;;;9.00;;
55641;SDS011;41509;53.108;6.100;2023-03-01T12:46:57;15.15;;;8.02;;
55641;SDS011;41509;53.108;6.100;2023-03-01T12:55:51;16.92;;;7.82;;
55641;SDS011;41509;53.108;6.100;2023-03-01T13:00:45;13.05;;;7.13;;
55641;SDS011;41509;53.108;6.100;2023-03-01T13:03:26;15.50;;;6.97;;
55641;SDS011;41509;53.108;6.100;2023-03-01T13:12:03;13.70;;;7.75;;
55641;SDS011;41509;53.108;6.100;2023-03-01T13:14:49;14.25;;;7.00;;
55641;SDS011;41509;53.108;6.100;2023-03-01T13:17:29;13.10;;;7.88;;
55641;SDS011;41509;53.108;6.100;2023-03-01T13:19:57;12.13;;;6.85;;
55641;SDS011;41509;53.108;6.100;2023-03-01T13:22:25;14.90;;;8.75;;
55641;SDS011;41509;53.108;6.100;2023-03-01T13:25:00;14.77;;;7.20;;
55641;SDS011;41509;53.108;6.100;2023-03-01T13:27:28;10.35;;;6.80;;
55641;SDS011;41509;53.108;6.100;2023-03-01T13:29:58;15.00;;;7.88;;
55641;SDS011;41509;53.108;6.100;2023-03-01T13:32:32;15.48;;;7.55;;
55641;SDS011;41509;53.108;6.100;2023-03-01T13:37:41;13.65;;;6.72;;
55641;SDS011;41509;53.108;6.100;2023-03-01T13:42:45;13.02;;;6.55;;
55641;SDS011;41509;53.108;6.100;2023-03-01T13:47:43;13.93;;;7.78;;
55641;SDS011;41509;53.108;6.100;2023-03-01T13:50:18;11.95;;;7.53;;
55641;SDS011;41509;53.108;6.100;2023-03-01T13:52:53;11.90;;;7.40;;
55641;SDS011;41509;53.108;6.100;2023-03-01T13:58:22;16.50;;;8.45;;
55641;SDS011;41509;53.108;6.100;2023-03-01T14:03:24;12.95;;;7.35;;
55641;SDS011;41509;53.108;6.100;2023-03-01T14:08:27;15.40;;;8.85;;
55641;SDS011;41509;53.108;6.100;2023-03-01T14:16:32;13.43;;;7.40;;
55641;SDS011;41509;53.108;6.100;2023-03-01T14:21:35;13.93;;;7.38;;
55641;SDS011;41509;53.108;6.100;2023-03-01T14:24:01;13.45;;;6.80;;
55641;SDS011;41509;53.108;6.100;2023-03-01T14:28:54;12.20;;;6.90;;
55641;SDS011;41509;53.108;6.100;2023-03-01T14:31:38;11.57;;;7.10;;
55641;SDS011;41509;53.108;6.100;2023-03-01T14:34:04;11.45;;;6.45;;
55641;SDS011;41509;53.108;6.100;2023-03-01T14:36:32;10.50;;;7.25;;
55641;SDS011;41509;53.108;6.100;2023-03-01T14:38:59;12.48;;;6.25;;
55641;SDS011;41509;53.108;6.100;2023-03-01T14:41:31;10.98;;;6.43;;
55641;SDS011;41509;53.108;6.100;2023-03-01T14:44:06;10.18;;;6.40;;
55641;SDS011;41509;53.108;6.100;2023-03-01T14:46:41;11.48;;;6.57;;
55641;SDS011;41509;53.108;6.100;2023-03-01T14:49:13;11.45;;;5.70;;
55641;SDS011;41509;53.108;6.100;2023-03-01T14:51:54;12.88;;;6.57;;
55641;SDS011;41509;53.108;6.100;2023-03-01T14:54:41;10.27;;;6.43;;
55641;SDS011;41509;53.108;6.100;2023-03-01T14:57:14;10.95;;;6.53;;
55641;SDS011;41509;53.108;6.100;2023-03-01T14:59:40;11.73;;;5.93;;
55641;SDS011;41509;53.108;6.100;2023-03-01T15:02:08;10.07;;;5.90;;
55641;SDS011;41509;53.108;6.100;2023-03-01T15:04:42;12.65;;;6.90;;
55641;SDS011;41509;53.108;6.100;2023-03-01T15:07:11;12.98;;;6.53;;
55641;SDS011;41509;53.108;6.100;2023-03-01T15:09:39;11.10;;;5.97;;
55641;SDS011;41509;53.108;6.100;2023-03-01T15:12:25;13.10;;;6.05;;
55641;SDS011;41509;53.108;6.100;2023-03-01T15:14:56;11.15;;;6.43;;
55641;SDS011;41509;53.108;6.100;2023-03-01T15:17:26;11.82;;;6.97;;
55641;SDS011;41509;53.108;6.100;2023-03-01T15:19:58;12.43;;;6.43;;
55641;SDS011;41509;53.108;6.100;2023-03-01T15:22:25;12.20;;;7.25;;
55641;SDS011;41509;53.108;6.100;2023-03-01T15:27:19;14.30;;;6.30;;
55641;SDS011;41509;53.108;6.100;2023-03-01T15:29:50;10.65;;;6.30;;
55641;SDS011;41509;53.108;6.100;2023-03-01T15:32:24;9.25;;;5.68;;
55641;SDS011;41509;53.108;6.100;2023-03-01T15:34:55;11.68;;;5.88;;
55641;SDS011;41509;53.108;6.100;2023-03-01T15:43:02;12.70;;;6.03;;
55641;SDS011;41509;53.108;6.100;2023-03-01T15:45:30;12.43;;;6.85;;
55641;SDS011;41509;53.108;6.100;2023-03-01T15:48:20;13.43;;;7.25;;
55641;SDS011;41509;53.108;6.100;2023-03-01T15:50:53;10.48;;;6.53;;
55641;SDS011;41509;53.108;6.100;2023-03-01T15:53:20;15.05;;;7.35;;
55641;SDS011;41509;53.108;6.100;2023-03-01T15:55:45;10.87;;;6.43;;
55641;SDS011;41509;53.108;6.100;2023-03-01T16:00:45;14.90;;;7.15;;
55641;SDS011;41509;53.108;6.100;2023-03-01T16:03:13;13.27;;;7.15;;
55641;SDS011;41509;53.108;6.100;2023-03-01T16:05:46;12.70;;;6.43;;
55641;SDS011;41509;53.108;6.100;2023-03-01T16:08:12;14.05;;;7.07;;
55641;SDS011;41509;53.108;6.100;2023-03-01T16:10:38;12.45;;;7.03;;
55641;SDS011;41509;53.108;6.100;2023-03-01T16:13:06;13.88;;;7.93;;
55641;SDS011;41509;53.108;6.100;2023-03-01T16:15:33;15.32;;;7.65;;
55641;SDS011;41509;53.108;6.100;2023-03-01T16:18:03;13.32;;;6.97;;
55641;SDS011;41509;53.108;6.100;2023-03-01T16:20:30;12.50;;;7.00;;
55641;SDS011;41509;53.108;6.100;2023-03-01T16:23:03;14.70;;;6.13;;
55641;SDS011;41509;53.108;6.100;2023-03-01T16:25:31;13.35;;;6.82;;
55641;SDS011;41509;53.108;6.100;2023-03-01T16:27:57;16.63;;;7.20;;
55641;SDS011;41509;53.108;6.100;2023-03-01T16:30:26;14.75;;;6.82;;
55641;SDS011;41509;53.108;6.100;2023-03-01T16:32:52;11.73;;;6.70;;
55641;SDS011;41509;53.108;6.100;2023-03-01T16:35:18;13.02;;;7.40;;
55641;SDS011;41509;53.108;6.100;2023-03-01T16:37:46;17.52;;;7.30;;
55641;SDS011;41509;53.108;6.100;2023-03-01T16:40:19;17.45;;;8.02;;
55641;SDS011;41509;53.108;6.100;2023-03-01T16:42:53;13.98;;;7.10;;
55641;SDS011;41509;53.108;6.100;2023-03-01T16:45:20;12.93;;;6.63;;
55641;SDS011;41509;53.108;6.100;2023-03-01T16:47:46;16.23;;;8.63;;
55641;SDS011;41509;53.108;6.100;2023-03-01T16:50:11;19.00;;;9.70;;
55641;SDS011;41509;53.108;6.100;2023-03-01T16:52:37;14.70;;;7.97;;
55641;SDS011;41509;53.108;6.100;2023-03-01T16:55:03;15.43;;;7.68;;
55641;SDS011;41509;53.108;6.100;2023-03-01T16:57:30;14.88;;;7.13;;
55641;SDS011;41509;53.108;6.100;2023-03-01T16:59:58;14.52;;;7.40;;
55641;SDS011;41509;53.108;6.100;2023-03-01T17:02:23;15.77;;;8.10;;
55641;SDS011;41509;53.108;6.100;2023-03-01T17:05:08;16.00;;;8.27;;
55641;SDS011;41509;53.108;6.100;2023-03-01T17:07:36;14.38;;;7.95;;
55641;SDS011;41509;53.108;6.100;2023-03-01T17:10:06;14.63;;;7.88;;
55641;SDS011;41509;53.108;6.100;2023-03-01T17:12:34;15.02;;;7.80;;
55641;SDS011;41509;53.108;6.100;2023-03-01T17:14:59;15.90;;;8.13;;
55641;SDS011;41509;53.108;6.100;2023-03-01T17:17:26;16.10;;;9.13;;
55641;SDS011;41509;53.108;6.100;2023-03-01T17:19:51;16.33;;;8.55;;
55641;SDS011;41509;53.108;6.100;2023-03-01T17:22:22;16.70;;;8.32;;
55641;SDS011;41509;53.108;6.100;2023-03-01T17:24:48;19.37;;;9.03;;
55641;SDS011;41509;53.108;6.100;2023-03-01T17:27:14;18.30;;;9.70;;
55641;SDS011;41509;53.108;6.100;2023-03-01T17:29:40;15.77;;;8.80;;
55641;SDS011;41509;53.108;6.100;2023-03-01T17:32:06;17.48;;;9.13;;
55641;SDS011;41509;53.108;6.100;2023-03-01T17:34:32;14.30;;;7.63;;
55641;SDS011;41509;53.108;6.100;2023-03-01T17:37:00;15.05;;;7.55;;
55641;SDS011;41509;53.108;6.100;2023-03-01T17:39:25;19.40;;;8.67;;